Time;durP1;ratioP1;P1;durP2;ratioP2;P2;SDS_P1;SDS_P2;PMS_P1;PMS_P2;Temp;Humidity;BMP_temperature;BMP_pressure;BME280_temperature;BME280_humidity;BME280_pressure;Samples;Min_cycle;Max_cycle;Signal;HPM_P1;HPM_P2
2023/03/17 00:01:19;;;;;;;6.77;2.57;;;3.00;94.30;2.80;100769.00;;;;4908569;28;87727;-65
2023/03/17 00:03:46;;;;;;;3.10;1.93;;;3.00;94.30;2.80;100779.00;;;;4891108;28;88672;-66
2023/03/17 00:06:23;;;;;;;3.87;1.90;;;3.00;94.30;2.80;100775.00;;;;4893027;28;98887;-66
2023/03/17 00:08:49;;;;;;;2.10;1.83;;;3.00;94.20;2.80;100778.00;;;;4893666;28;87644;-66
2023/03/17 00:11:16;;;;;;;2.00;1.50;;;3.00;94.10;2.80;100773.00;;;;4889542;28;87280;-66
2023/03/17 00:13:44;;;;;;;2.43;1.87;;;3.00;94.10;2.80;100773.00;;;;4890680;28;117555;-66
2023/03/17 00:16:35;;;;;;;2.97;1.90;;;3.00;94.10;2.70;100757.00;;;;4895116;28;87973;-66
2023/03/17 00:19:01;;;;;;;6.50;2.03;;;3.00;94.00;2.70;100759.00;;;;4905234;28;89078;-65
2023/03/17 00:21:30;;;;;;;3.97;2.13;;;3.00;94.00;2.70;100751.00;;;;4893942;28;108383;-66
2023/03/17 00:23:56;;;;;;;6.73;3.00;;;2.90;94.00;2.70;100754.00;;;;4894731;28;88055;-65
2023/03/17 00:26:23;;;;;;;1.67;1.50;;;3.00;94.00;2.70;100746.00;;;;4894851;28;88083;-66
2023/03/17 00:28:50;;;;;;;5.27;2.63;;;2.90;94.10;2.60;100738.00;;;;4893470;28;87846;-66
2023/03/17 00:31:19;;;;;;;4.60;2.13;;;2.90;94.10;2.60;100735.00;;;;4888731;28;87981;-66
2023/03/17 00:33:46;;;;;;;4.30;2.43;;;2.80;94.00;2.60;100731.00;;;;4891424;28;88863;-66
2023/03/17 00:36:29;;;;;;;3.87;2.43;;;2.80;94.00;2.60;100726.00;;;;4893136;28;88696;-66
2023/03/17 00:38:56;;;;;;;2.90;2.40;;;2.90;94.10;2.50;100729.00;;;;4888354;28;88315;-67
2023/03/17 00:41:22;;;;;;;2.87;1.80;;;2.70;94.10;2.50;100713.00;;;;4894629;28;89195;-66
2023/03/17 00:43:48;;;;;;;2.67;1.50;;;2.80;94.00;2.60;100704.00;;;;4891029;28;90201;-66
2023/03/17 00:46:34;;;;;;;3.30;2.37;;;2.70;93.90;2.50;100720.00;;;;4894674;28;105656;-66
2023/03/17 00:49:02;;;;;;;2.77;2.10;;;2.80;93.80;2.60;100705.00;;;;4884148;28;87923;-66
2023/03/17 00:51:28;;;;;;;2.93;1.63;;;2.80;93.60;2.60;100699.00;;;;4887073;28;87923;-66
2023/03/17 00:53:54;;;;;;;1.97;1.87;;;2.90;93.40;2.70;100697.00;;;;4890532;28;89213;-67
2023/03/17 00:56:20;;;;;;;3.20;2.10;;;3.00;93.20;2.70;100704.00;;;;4889292;28;109055;-66
2023/03/17 00:58:47;;;;;;;6.00;2.07;;;3.00;93.00;2.80;100702.00;;;;4892852;28;88009;-66
2023/03/17 01:01:13;;;;;;;2.43;1.67;;;3.00;92.60;2.90;100704.00;;;;4893386;28;100059;-66
2023/03/17 01:03:40;;;;;;;8.17;2.40;;;3.10;92.80;3.00;100700.00;;;;4893199;28;117520;-66
2023/03/17 01:06:11;;;;;;;2.37;1.27;;;4.00;92.10;3.10;100690.00;;;;4892646;28;88691;-67
2023/03/17 01:08:39;;;;;;;2.63;2.20;;;3.20;91.20;3.20;100692.00;;;;4890466;28;89227;-67
2023/03/17 01:11:06;;;;;;;3.77;1.63;;;3.40;91.00;3.30;100688.00;;;;4892196;28;87913;-66
2023/03/17 01:13:31;;;;;;;1.30;1.20;;;3.40;90.70;3.30;100694.00;;;;4894257;28;88517;-66
2023/03/17 01:15:57;;;;;;;2.50;1.57;;;3.80;90.60;3.40;100677.00;;;;4894465;28;108271;-67
2023/03/17 01:18:23;;;;;;;3.80;1.77;;;3.60;88.90;3.60;100667.00;;;;4894753;28;110926;-67
2023/03/17 01:20:52;;;;;;;2.40;1.67;;;3.70;87.80;3.70;100665.00;;;;4893801;28;109601;-67
2023/03/17 01:23:17;;;;;;;7.13;2.57;;;3.80;87.40;3.70;100677.00;;;;4894805;28;89144;-66
2023/03/17 01:25:44;;;;;;;2.30;1.87;;;3.80;86.30;3.80;100660.00;;;;4894114;28;97502;-65
2023/03/17 01:28:14;;;;;;;1.63;1.43;;;4.00;85.80;3.80;100670.00;;;;4895040;28;88664;-65
2023/03/17 01:30:41;;;;;;;2.07;1.17;;;4.00;85.00;3.90;100667.00;;;;4895391;28;87994;-66
2023/03/17 01:33:09;;;;;;;3.37;2.00;;;4.00;83.90;4.00;100675.00;;;;4897049;28;88938;-65
2023/03/17 01:35:37;;;;;;;3.23;2.00;;;4.10;83.20;4.00;100679.00;;;;4897520;28;88086;-66
2023/03/17 01:38:03;;;;;;;2.37;1.77;;;4.70;82.40;4.10;100669.00;;;;4896268;28;87989;-66
2023/03/17 01:40:33;;;;;;;4.87;1.93;;;4.30;82.00;4.10;100661.00;;;;4895432;28;87893;-66
2023/03/17 01:43:16;;;;;;;2.53;2.10;;;4.30;81.60;4.10;100660.00;;;;4894930;28;109687;-65
2023/03/17 01:46:28;;;;;;;3.23;2.03;;;4.40;80.30;4.20;100664.00;;;;4893145;28;111000;-67
2023/03/17 01:49:12;;;;;;;3.17;1.80;;;4.40;79.60;4.30;100655.00;;;;4895302;28;87551;-65
2023/03/17 01:52:13;;;;;;;2.80;1.90;;;4.40;78.10;4.30;100649.00;;;;4898118;28;88329;-67
2023/03/17 01:54:55;;;;;;;3.63;1.57;;;4.60;78.00;4.40;100642.00;;;;4893893;28;109380;-65
2023/03/17 01:57:31;;;;;;;3.10;1.23;;;5.10;77.80;4.40;100644.00;;;;4895332;28;87818;-66
2023/03/17 02:00:15;;;;;;;10.17;2.10;;;4.60;76.50;4.40;100639.00;;;;4909349;28;104718;-66
2023/03/17 02:02:47;;;;;;;3.03;1.90;;;4.80;76.10;4.40;100642.00;;;;4908892;28;88232;-66
2023/03/17 02:05:19;;;;;;;2.97;1.87;;;4.60;76.10;4.40;100630.00;;;;4894312;28;88094;-65
2023/03/17 02:07:45;;;;;;;1.90;1.70;;;4.10;75.60;4.40;100638.00;;;;4895012;28;88466;-66
2023/03/17 02:10:13;;;;;;;3.83;2.40;;;4.60;76.10;4.30;100645.00;;;;4897071;28;110202;-67
2023/03/17 02:12:42;;;;;;;3.33;1.27;;;4.60;75.50;4.30;100644.00;;;;4908887;28;99626;-67
2023/03/17 02:15:09;;;;;;;2.10;1.70;;;4.90;75.40;4.30;100630.00;;;;4894954;28;110038;-66
2023/03/17 02:17:35;;;;;;;2.13;1.63;;;4.50;75.00;4.30;100631.00;;;;4896479;28;96786;-66
2023/03/17 02:20:17;;;;;;;2.70;1.73;;;4.30;74.70;4.30;100633.00;;;;4896619;28;88065;-65
2023/03/17 02:22:51;;;;;;;3.07;2.10;;;4.50;74.70;4.30;100623.00;;;;4895167;28;88058;-67
2023/03/17 02:25:19;;;;;;;2.83;1.53;;;4.50;74.40;4.30;100613.00;;;;4895030;28;89579;-66
2023/03/17 02:27:50;;;;;;;3.13;1.70;;;4.50;74.50;4.30;100611.00;;;;4894480;28;88985;-66
2023/03/17 02:30:23;;;;;;;1.60;1.33;;;5.10;74.60;4.30;100606.00;;;;4909679;28;96472;-66
2023/03/17 02:32:49;;;;;;;4.77;2.63;;;4.60;74.10;4.30;100600.00;;;;4893459;28;87798;-66
2023/03/17 02:35:16;;;;;;;3.30;2.00;;;4.40;74.40;4.20;100613.00;;;;4896081;28;96401;-67
2023/03/17 02:37:45;;;;;;;2.30;1.57;;;4.40;74.30;4.20;100605.00;;;;4895176;28;89233;-66
2023/03/17 02:40:13;;;;;;;1.63;1.53;;;4.40;74.30;4.20;100611.00;;;;4897367;28;87876;-65
2023/03/17 02:42:40;;;;;;;2.77;2.00;;;4.40;74.30;4.20;100598.00;;;;4897575;28;87035;-64
2023/03/17 02:45:08;;;;;;;2.07;1.43;;;4.40;74.00;4.20;100586.00;;;;4894216;28;88650;-65
2023/03/17 02:47:35;;;;;;;2.47;1.63;;;4.40;74.10;4.20;100590.00;;;;4894891;28;88664;-65
2023/03/17 02:50:01;;;;;;;4.03;1.90;;;4.40;74.30;4.20;100593.00;;;;4895377;28;88763;-67
2023/03/17 02:52:27;;;;;;;1.80;1.30;;;4.40;74.30;4.20;100597.00;;;;4894469;28;87820;-66
2023/03/17 02:54:52;;;;;;;1.80;1.70;;;5.10;74.00;4.30;100595.00;;;;4883717;28;117220;-65
2023/03/17 02:57:18;;;;;;;2.60;1.47;;;4.50;73.80;4.30;100597.00;;;;4894301;28;117518;-67
2023/03/17 02:59:45;;;;;;;2.47;1.70;;;5.00;73.90;4.30;100594.00;;;;4894878;28;88058;-66
2023/03/17 03:02:11;;;;;;;1.57;1.37;;;4.40;73.20;4.30;100587.00;;;;4894035;28;92662;-66
2023/03/17 03:04:36;;;;;;;2.10;1.50;;;4.40;72.70;4.40;100589.00;;;;4896704;28;103007;-67
2023/03/17 03:07:02;;;;;;;1.97;1.53;;;4.50;72.90;4.40;100588.00;;;;4895362;28;117466;-65
2023/03/17 03:09:28;;;;;;;2.13;1.43;;;4.60;72.80;4.40;100578.00;;;;4896055;28;95584;-65
2023/03/17 03:11:54;;;;;;;2.57;1.90;;;4.50;71.90;4.50;100571.00;;;;4894081;28;99957;-66
2023/03/17 03:14:20;;;;;;;4.13;1.53;;;4.60;72.00;4.50;100577.00;;;;4910384;28;91602;-65
2023/03/17 03:16:46;;;;;;;4.30;1.60;;;4.70;71.90;4.50;100570.00;;;;4893559;28;89725;-67
2023/03/17 03:19:12;;;;;;;4.60;2.03;;;4.60;72.00;4.50;100576.00;;;;4891550;28;89955;-65
2023/03/17 03:21:37;;;;;;;3.23;1.33;;;4.70;71.40;4.50;100575.00;;;;4892989;28;108907;-66
2023/03/17 03:24:04;;;;;;;2.60;1.63;;;4.70;71.50;4.50;100578.00;;;;4894382;28;116951;-65
2023/03/17 03:26:45;;;;;;;0.93;0.87;;;4.70;71.80;4.50;100583.00;;;;4892913;28;99910;-65
2023/03/17 03:29:11;;;;;;;2.07;1.23;;;4.40;71.70;4.50;100577.00;;;;4891352;28;91572;-65
2023/03/17 03:31:37;;;;;;;2.53;1.60;;;4.70;71.50;4.50;100577.00;;;;4896476;28;87328;-65
2023/03/17 03:34:03;;;;;;;2.13;1.70;;;4.60;71.20;4.50;100592.00;;;;4891513;28;100718;-66
2023/03/17 03:36:28;;;;;;;5.40;2.33;;;4.70;71.20;4.50;100592.00;;;;4892634;28;88708;-66
2023/03/17 03:38:54;;;;;;;5.27;2.33;;;4.70;71.20;4.50;100597.00;;;;4892210;28;89096;-66
2023/03/17 03:41:20;;;;;;;2.90;1.23;;;4.70;70.60;4.50;100591.00;;;;4894791;28;88066;-65
2023/03/17 03:43:46;;;;;;;2.63;1.63;;;4.70;70.40;4.50;100600.00;;;;4891026;28;89189;-66
2023/03/17 03:46:12;;;;;;;4.30;1.37;;;4.60;70.70;4.50;100602.00;;;;4894422;28;118105;-66
2023/03/17 03:48:37;;;;;;;1.63;1.40;;;4.60;70.90;4.50;100603.00;;;;4894797;28;87836;-66
2023/03/17 03:51:03;;;;;;;3.77;2.03;;;4.60;71.00;4.40;100604.00;;;;4894162;28;97836;-65
2023/03/17 03:53:29;;;;;;;3.70;1.60;;;4.40;70.30;4.40;100594.00;;;;4894485;28;88452;-64
2023/03/17 03:55:55;;;;;;;3.60;1.30;;;4.80;70.30;4.50;100590.00;;;;4893251;28;93784;-67
2023/03/17 03:58:21;;;;;;;4.97;1.97;;;4.70;70.10;4.40;100601.00;;;;4891102;28;87920;-65
2023/03/17 04:00:47;;;;;;;4.53;1.77;;;4.60;70.50;4.40;100593.00;;;;4893185;28;109810;-65
2023/03/17 04:03:14;;;;;;;1.60;1.43;;;4.70;70.60;4.40;100586.00;;;;4890872;28;105051;-66
2023/03/17 04:05:40;;;;;;;3.63;1.40;;;4.50;70.70;4.40;100600.00;;;;4895401;28;90098;-67
2023/03/17 04:08:06;;;;;;;2.87;1.43;;;4.50;70.50;4.30;100595.00;;;;4896106;28;87807;-67
2023/03/17 04:10:32;;;;;;;3.97;1.60;;;4.50;69.90;4.40;100578.00;;;;4895661;28;87733;-66
2023/03/17 04:12:58;;;;;;;1.63;1.53;;;4.50;70.00;4.40;100607.00;;;;4893483;28;108520;-66
2023/03/17 04:15:24;;;;;;;4.20;1.80;;;4.50;69.90;4.40;100604.00;;;;4891214;28;94250;-66
2023/03/17 04:17:50;;;;;;;1.70;1.47;;;4.60;69.50;4.40;100587.00;;;;4891486;28;87837;-67
2023/03/17 04:20:17;;;;;;;1.93;1.83;;;4.60;69.50;4.40;100591.00;;;;4894749;28;87671;-65
2023/03/17 04:22:43;;;;;;;2.77;1.47;;;4.60;69.20;4.50;100592.00;;;;4895494;28;99601;-67
2023/03/17 04:25:13;;;;;;;1.63;1.43;;;4.70;69.40;4.40;100588.00;;;;4895802;28;88131;-66
2023/03/17 04:27:39;;;;;;;2.20;1.93;;;4.70;69.30;4.50;100592.00;;;;4892177;28;88852;-66
2023/03/17 04:30:05;;;;;;;3.40;2.10;;;4.60;69.20;4.40;100597.00;;;;4894077;28;87838;-66
2023/03/17 04:32:31;;;;;;;3.57;2.20;;;4.30;69.00;4.40;100576.00;;;;4894106;28;89511;-66
2023/03/17 04:34:57;;;;;;;3.07;1.80;;;4.60;68.60;4.50;100570.00;;;;4891463;28;111560;-66
2023/03/17 04:37:23;;;;;;;4.67;1.80;;;4.60;68.70;4.50;100587.00;;;;4890506;28;87845;-65
2023/03/17 04:39:50;;;;;;;2.53;1.63;;;4.60;68.70;4.50;100574.00;;;;4892711;28;106206;-65
2023/03/17 04:42:16;;;;;;;3.70;1.53;;;4.60;69.40;4.50;100573.00;;;;4894726;28;89144;-65
2023/03/17 04:44:42;;;;;;;3.90;1.83;;;4.90;69.00;4.40;100566.00;;;;4894473;28;88818;-65
2023/03/17 04:47:07;;;;;;;4.03;2.57;;;4.60;68.90;4.40;100555.00;;;;4893879;28;89912;-65
2023/03/17 04:49:33;;;;;;;3.03;1.20;;;4.60;69.00;4.30;100547.00;;;;4890666;28;100689;-65
2023/03/17 04:51:59;;;;;;;2.47;2.07;;;4.50;68.70;4.30;100552.00;;;;4891942;28;105484;-66
2023/03/17 04:54:25;;;;;;;2.03;1.80;;;4.50;69.00;4.30;100549.00;;;;4893891;28;89373;-65
2023/03/17 04:56:51;;;;;;;2.93;1.53;;;4.50;69.20;4.20;100546.00;;;;4893576;28;87924;-67
2023/03/17 04:59:16;;;;;;;4.83;1.77;;;4.40;69.20;4.20;100545.00;;;;4893626;28;87650;-65
2023/03/17 05:01:42;;;;;;;6.43;2.30;;;4.30;69.40;4.20;100544.00;;;;4895729;28;88579;-65
2023/03/17 05:04:08;;;;;;;4.33;2.20;;;4.40;69.60;4.10;100554.00;;;;4894771;28;118132;-66
2023/03/17 05:06:34;;;;;;;6.30;2.07;;;4.30;69.60;4.10;100543.00;;;;4896109;28;109912;-65
2023/03/17 05:09:00;;;;;;;3.17;1.43;;;4.30;69.80;4.10;100544.00;;;;4891052;28;87224;-65
2023/03/17 05:11:26;;;;;;;6.57;2.70;;;4.30;70.10;4.10;100546.00;;;;4893558;28;89015;-66
2023/03/17 05:13:51;;;;;;;4.93;2.50;;;4.80;70.60;4.00;100547.00;;;;4895661;28;117982;-66
2023/03/17 05:16:17;;;;;;;2.37;1.70;;;4.90;70.70;4.00;100558.00;;;;4896506;28;101026;-66
2023/03/17 05:18:43;;;;;;;4.57;2.20;;;4.30;70.50;3.90;100548.00;;;;4893211;28;87723;-66
2023/03/17 05:21:09;;;;;;;3.57;1.97;;;4.20;70.70;3.90;100541.00;;;;4893809;28;88132;-66
2023/03/17 05:23:35;;;;;;;1.77;1.67;;;4.00;70.90;3.90;100557.00;;;;4892072;28;116768;-66
2023/03/17 05:26:01;;;;;;;2.17;1.60;;;4.10;71.00;3.90;100552.00;;;;4898074;28;87875;-65
2023/03/17 05:28:27;;;;;;;1.70;1.60;;;4.10;71.20;3.80;100555.00;;;;4893410;28;109415;-65
2023/03/17 05:30:53;;;;;;;6.97;2.30;;;4.00;71.30;3.80;100566.00;;;;4896697;28;87632;-66
2023/03/17 05:33:20;;;;;;;2.63;2.40;;;4.00;71.40;3.90;100563.00;;;;4895829;28;88122;-65
2023/03/17 05:35:46;;;;;;;1.50;1.40;;;4.00;71.40;3.90;100557.00;;;;4897912;28;87885;-66
2023/03/17 05:38:14;;;;;;;2.67;2.43;;;4.10;71.60;3.90;100559.00;;;;4898896;28;87836;-66
2023/03/17 05:40:39;;;;;;;4.37;2.13;;;4.00;71.20;4.00;100545.00;;;;4896444;28;89276;-67
2023/03/17 05:43:06;;;;;;;1.60;1.27;;;4.60;71.60;4.00;100553.00;;;;4897213;28;88597;-65
2023/03/17 05:45:32;;;;;;;4.00;2.30;;;4.20;71.90;4.00;100555.00;;;;4897303;28;87779;-65
2023/03/17 05:47:58;;;;;;;3.17;2.30;;;4.20;70.90;4.00;100553.00;;;;4896304;28;87882;-65
2023/03/17 05:50:24;;;;;;;8.70;3.20;;;4.10;71.00;4.10;100560.00;;;;4896750;28;101580;-66
2023/03/17 05:52:51;;;;;;;1.87;1.63;;;5.20;71.70;4.10;100569.00;;;;4894997;28;89360;-65
2023/03/17 05:55:17;;;;;;;3.30;2.23;;;5.00;71.70;4.10;100570.00;;;;4897059;28;87909;-66
2023/03/17 05:57:43;;;;;;;3.93;1.90;;;4.30;71.00;4.20;100569.00;;;;4895131;28;88337;-66
2023/03/17 06:00:10;;;;;;;2.10;1.77;;;4.30;71.00;4.20;100568.00;;;;4895532;28;113624;-66
2023/03/17 06:02:37;;;;;;;5.00;1.93;;;4.30;70.80;4.20;100572.00;;;;4897232;28;89031;-65
2023/03/17 06:05:05;;;;;;;5.17;2.20;;;4.40;70.80;4.20;100561.00;;;;4897231;28;88562;-67
2023/03/17 06:07:30;;;;;;;7.73;2.00;;;4.40;70.80;4.30;100560.00;;;;4895770;28;87899;-67
2023/03/17 06:09:56;;;;;;;1.60;1.50;;;4.40;70.80;4.30;100564.00;;;;4894499;28;89079;-66
2023/03/17 06:12:22;;;;;;;2.30;1.83;;;4.40;70.80;4.30;100575.00;;;;4895888;28;117631;-67
2023/03/17 06:14:47;;;;;;;3.13;1.40;;;4.50;71.00;4.30;100573.00;;;;4895984;28;109825;-66
2023/03/17 06:17:13;;;;;;;2.70;1.87;;;4.50;72.00;4.30;100580.00;;;;4893726;28;108037;-65
2023/03/17 06:19:39;;;;;;;2.80;1.97;;;4.50;71.00;4.30;100566.00;;;;4896673;28;111634;-64
2023/03/17 06:22:05;;;;;;;3.73;1.93;;;4.50;70.90;4.30;100582.00;;;;4897880;28;88673;-65
2023/03/17 06:24:32;;;;;;;8.73;2.00;;;4.50;71.00;4.40;100589.00;;;;4897248;28;87865;-65
2023/03/17 06:26:58;;;;;;;1.50;1.40;;;4.10;70.90;4.40;100591.00;;;;4890944;28;88827;-65
2023/03/17 06:29:24;;;;;;;2.80;1.50;;;4.60;71.90;4.40;100577.00;;;;4892558;28;106793;-65
2023/03/17 06:31:56;;;;;;;4.13;1.70;;;4.50;71.00;4.50;100569.00;;;;4890435;28;89191;-66
2023/03/17 06:34:23;;;;;;;5.87;1.73;;;4.60;71.10;4.50;100576.00;;;;4893484;28;111632;-66
2023/03/17 06:36:48;;;;;;;2.67;1.97;;;4.70;71.20;4.60;100582.00;;;;4894790;28;88337;-65
2023/03/17 06:39:15;;;;;;;2.00;1.37;;;4.70;70.90;4.70;100595.00;;;;4894611;28;88126;-65
2023/03/17 06:41:41;;;;;;;3.07;2.00;;;4.80;70.90;4.70;100595.00;;;;4889885;28;97985;-65
2023/03/17 06:44:07;;;;;;;5.70;1.67;;;4.80;71.00;4.90;100593.00;;;;4896114;28;110491;-65
2023/03/17 06:46:33;;;;;;;5.00;2.20;;;4.90;70.90;5.00;100600.00;;;;4895575;28;87151;-65
2023/03/17 06:49:00;;;;;;;2.87;1.67;;;5.10;70.80;5.10;100595.00;;;;4894753;28;88062;-65
2023/03/17 06:51:26;;;;;;;1.73;1.63;;;5.00;70.90;5.20;100616.00;;;;4895296;28;88782;-65
2023/03/17 06:53:51;;;;;;;2.07;1.63;;;5.30;70.20;5.30;100604.00;;;;4895041;28;110466;-65
2023/03/17 06:56:17;;;;;;;4.97;2.40;;;6.20;69.30;5.50;100608.00;;;;4893665;28;98437;-67
2023/03/17 06:58:44;;;;;;;2.47;2.13;;;5.50;68.30;5.50;100604.00;;;;4910524;28;88396;-65
2023/03/17 07:01:10;;;;;;;1.80;1.40;;;5.60;67.30;5.60;100607.00;;;;4896546;28;88968;-66
2023/03/17 07:03:36;;;;;;;1.47;1.23;;;5.70;67.00;5.70;100620.00;;;;4896208;28;89663;-65
2023/03/17 07:06:02;;;;;;;3.10;1.87;;;5.70;66.80;5.70;100616.00;;;;4895616;28;109001;-65
2023/03/17 07:08:29;;;;;;;2.47;1.50;;;6.00;67.30;5.80;100623.00;;;;4894497;28;99813;-66
2023/03/17 07:10:56;;;;;;;3.63;2.00;;;5.80;67.00;5.80;100624.00;;;;4894643;28;87462;-65
2023/03/17 07:13:22;;;;;;;1.77;1.40;;;6.00;66.00;5.90;100620.00;;;;4895280;28;88024;-66
2023/03/17 07:15:49;;;;;;;4.90;2.60;;;5.90;65.50;6.00;100613.00;;;;4896946;28;94647;-65
2023/03/17 07:18:15;;;;;;;3.77;1.60;;;6.00;65.30;6.00;100607.00;;;;4894553;28;106393;-65
2023/03/17 07:20:42;;;;;;;1.30;1.17;;;6.80;65.70;6.10;100611.00;;;;4894564;28;89661;-66
2023/03/17 07:23:19;;;;;;;5.07;2.20;;;6.20;64.90;6.20;100594.00;;;;4895052;28;88018;-66
2023/03/17 07:25:46;;;;;;;3.17;1.40;;;6.30;64.20;6.20;100587.00;;;;4892117;28;87814;-65
2023/03/17 07:28:12;;;;;;;2.37;1.57;;;6.20;63.60;6.30;100582.00;;;;4893206;28;88196;-67
2023/03/17 07:30:39;;;;;;;1.50;1.40;;;6.30;63.50;6.40;100579.00;;;;4893379;28;111441;-65
2023/03/17 07:33:05;;;;;;;2.70;1.53;;;7.20;63.70;6.50;100568.00;;;;4897004;28;88912;-66
2023/03/17 07:35:32;;;;;;;1.93;1.67;;;7.40;63.20;6.70;100541.00;;;;4895943;28;109244;-66
2023/03/17 07:37:58;;;;;;;2.60;1.67;;;7.10;63.60;6.70;100534.00;;;;4894578;28;88401;-68
2023/03/17 07:40:24;;;;;;;1.63;1.20;;;6.80;61.70;6.80;100537.00;;;;4895267;28;89033;-66
2023/03/17 07:42:50;;;;;;;7.13;2.10;;;7.40;61.90;6.80;100538.00;;;;4893532;28;88955;-66
2023/03/17 07:45:16;;;;;;;2.90;2.13;;;7.10;62.10;6.80;100546.00;;;;4892362;28;108661;-65
2023/03/17 07:47:42;;;;;;;2.37;0.90;;;6.90;61.90;6.80;100552.00;;;;4893176;28;95487;-65
2023/03/17 07:50:08;;;;;;;2.27;1.30;;;7.70;62.40;6.90;100555.00;;;;4895409;28;89011;-65
2023/03/17 07:52:34;;;;;;;1.90;1.13;;;7.00;62.80;6.90;100532.00;;;;4895782;28;88159;-66
2023/03/17 07:55:00;;;;;;;4.17;1.87;;;7.20;62.90;6.90;100524.00;;;;4893416;28;102759;-65
2023/03/17 07:57:26;;;;;;;4.23;1.80;;;7.40;62.80;6.90;100537.00;;;;4893890;28;90068;-65
2023/03/17 07:59:51;;;;;;;2.73;1.57;;;7.00;62.80;7.00;100553.00;;;;4894370;28;88619;-67
2023/03/17 08:02:18;;;;;;;6.10;1.23;;;7.60;63.40;6.90;100524.00;;;;4891092;28;88175;-65
2023/03/17 08:04:44;;;;;;;4.53;1.73;;;7.10;61.70;6.90;100523.00;;;;4892325;28;88091;-66
2023/03/17 08:07:19;;;;;;;5.57;1.77;;;7.10;61.90;6.90;100521.00;;;;4888216;28;95154;-64
2023/03/17 08:09:46;;;;;;;2.47;1.70;;;7.70;61.60;6.90;100525.00;;;;4891745;28;117571;-67
2023/03/17 08:12:12;;;;;;;2.17;1.40;;;7.50;62.00;7.00;100526.00;;;;4893725;28;87604;-65
2023/03/17 08:14:37;;;;;;;4.00;2.20;;;7.10;62.00;7.10;100520.00;;;;4896858;28;87788;-66
2023/03/17 08:17:03;;;;;;;2.97;1.27;;;7.30;62.00;7.30;100527.00;;;;4892832;28;117949;-66
2023/03/17 08:19:29;;;;;;;5.77;1.43;;;8.10;63.00;7.70;100522.00;;;;4890954;28;89315;-66
2023/03/17 08:21:55;;;;;;;1.30;1.20;;;7.60;61.20;8.00;100528.00;;;;4893271;28;88169;-65
2023/03/17 08:24:21;;;;;;;1.47;1.30;;;7.90;60.40;8.20;100538.00;;;;4893642;28;87042;-66
2023/03/17 08:26:48;;;;;;;3.10;1.97;;;8.20;59.40;8.50;100526.00;;;;4894954;28;88540;-65
2023/03/17 08:29:14;;;;;;;1.40;1.10;;;8.40;58.70;8.70;100532.00;;;;4895488;28;88599;-66
2023/03/17 08:31:40;;;;;;;1.63;1.23;;;8.70;58.40;9.00;100534.00;;;;4893115;28;89010;-65
2023/03/17 08:34:06;;;;;;;0.90;0.80;;;8.90;57.50;9.20;100531.00;;;;4892716;28;89450;-64
2023/03/17 08:36:32;;;;;;;1.30;1.20;;;9.20;56.60;9.30;100512.00;;;;4889247;28;95302;-65
2023/03/17 08:38:58;;;;;;;1.80;1.53;;;9.30;56.20;9.50;100518.00;;;;4893494;28;88850;-65
2023/03/17 08:41:26;;;;;;;2.47;1.20;;;9.40;55.80;9.60;100507.00;;;;4893841;28;108642;-65
2023/03/17 08:43:51;;;;;;;1.40;1.10;;;9.60;56.40;9.90;100506.00;;;;4892778;28;87831;-64
2023/03/17 08:46:25;;;;;;;1.73;1.00;;;9.70;55.50;10.00;100503.00;;;;4895036;28;118234;-65
2023/03/17 08:48:55;;;;;;;1.63;1.53;;;10.00;54.70;10.10;100498.00;;;;4893407;28;88021;-65
2023/03/17 08:51:23;;;;;;;1.93;1.30;;;10.00;54.60;10.20;100493.00;;;;4893274;28;87888;-65
2023/03/17 08:53:50;;;;;;;2.37;1.80;;;10.20;54.20;10.30;100504.00;;;;4893607;28;87811;-65
2023/03/17 08:56:16;;;;;;;3.03;1.20;;;10.20;53.70;10.40;100499.00;;;;4893560;28;89043;-66
2023/03/17 08:58:42;;;;;;;3.00;1.60;;;10.40;54.50;10.70;100500.00;;;;4889485;28;109566;-65
2023/03/17 09:01:09;;;;;;;5.33;1.60;;;10.60;54.20;10.90;100501.00;;;;4893520;28;87997;-66
2023/03/17 09:03:37;;;;;;;1.50;0.97;;;10.80;53.00;11.00;100505.00;;;;4893224;28;87952;-65
2023/03/17 09:06:05;;;;;;;1.73;1.10;;;11.00;52.10;11.10;100508.00;;;;4893787;28;88258;-66
2023/03/17 09:08:33;;;;;;;6.20;1.50;;;11.00;51.00;11.10;100509.00;;;;4895241;28;89532;-67
2023/03/17 09:11:00;;;;;;;2.43;1.20;;;11.10;50.40;11.10;100508.00;;;;4894873;28;88161;-67
2023/03/17 09:13:26;;;;;;;2.83;1.33;;;11.10;50.50;11.30;100504.00;;;;4891257;28;87152;-65
2023/03/17 09:15:52;;;;;;;1.40;1.03;;;11.20;50.60;11.50;100500.00;;;;4891465;28;87821;-65
2023/03/17 09:18:23;;;;;;;1.33;1.10;;;11.40;50.70;11.80;100492.00;;;;4891720;28;115737;-65
2023/03/17 09:20:49;;;;;;;1.17;1.00;;;11.70;51.00;12.10;100500.00;;;;4893877;28;110972;-67
2023/03/17 09:23:15;;;;;;;2.17;1.20;;;12.00;50.00;12.30;100500.00;;;;4895341;28;88056;-67
2023/03/17 09:25:41;;;;;;;1.73;1.57;;;12.20;48.90;12.40;100504.00;;;;4894029;28;88648;-66
2023/03/17 09:28:13;;;;;;;2.27;1.57;;;12.40;48.80;12.50;100509.00;;;;4892474;28;88720;-65
2023/03/17 09:30:42;;;;;;;1.67;1.27;;;12.50;48.20;12.60;100499.00;;;;4892418;28;95328;-65
2023/03/17 09:33:14;;;;;;;1.57;1.47;;;12.50;48.50;12.80;100496.00;;;;4890712;28;108915;-66
2023/03/17 09:35:40;;;;;;;2.00;1.00;;;12.60;49.20;12.90;100500.00;;;;4890969;28;88207;-68
2023/03/17 09:38:07;;;;;;;1.47;1.23;;;12.80;48.10;13.00;100492.00;;;;4890406;28;87804;-66
2023/03/17 09:40:43;;;;;;;1.20;1.10;;;12.90;48.10;13.10;100491.00;;;;4893820;28;101180;-66
2023/03/17 09:43:43;;;;;;;2.10;1.20;;;13.00;48.50;13.20;100495.00;;;;4909068;28;87781;-65
2023/03/17 09:46:36;;;;;;;3.90;1.60;;;13.10;48.00;13.30;100495.00;;;;4874516;28;101775;-66
2023/03/17 09:49:09;;;;;;;1.93;1.07;;;13.20;47.30;13.40;100504.00;;;;4895908;28;88072;-67
2023/03/17 09:51:35;;;;;;;2.80;1.13;;;13.30;46.60;13.30;100493.00;;;;4894947;28;87547;-67
2023/03/17 09:54:11;;;;;;;0.90;0.63;;;13.30;46.20;13.30;100487.00;;;;4893983;28;89098;-67
2023/03/17 09:56:42;;;;;;;0.90;0.80;;;13.20;45.10;13.30;100501.00;;;;4909867;28;88614;-66
2023/03/17 09:59:31;;;;;;;1.07;0.97;;;13.30;45.70;13.30;100491.00;;;;4897265;28;110415;-66
2023/03/17 10:01:57;;;;;;;1.90;1.50;;;13.30;45.30;13.50;100482.00;;;;4894707;28;87999;-66
2023/03/17 10:04:23;;;;;;;1.80;1.37;;;13.30;45.60;13.70;100492.00;;;;4896344;28;109361;-66
2023/03/17 10:06:50;;;;;;;1.87;1.33;;;13.50;45.90;13.80;100495.00;;;;4898237;28;88022;-67
2023/03/17 10:09:25;;;;;;;4.10;1.63;;;13.70;45.10;13.90;100484.00;;;;4897985;28;87919;-66
2023/03/17 10:12:21;;;;;;;1.70;0.97;;;13.80;45.10;14.10;100474.00;;;;4909998;28;88934;-66
2023/03/17 10:15:02;;;;;;;0.80;0.80;;;13.90;44.70;14.20;100478.00;;;;4897416;28;88132;-68
2023/03/17 10:17:34;;;;;;;2.90;1.10;;;14.10;44.50;14.20;100485.00;;;;4894203;28;88724;-67
2023/03/17 10:20:43;;;;;;;1.70;1.20;;;14.20;44.10;14.40;100485.00;;;;4895400;28;87830;-66
2023/03/17 10:23:14;;;;;;;1.02;1.02;;;14.20;44.10;14.50;100478.00;;;;4879436;28;104692;-66
2023/03/17 10:25:40;;;;;;;3.08;1.33;;;14.30;43.70;14.60;100486.00;;;;4911103;28;101947;-66
2023/03/17 10:28:35;;;;;;;2.75;1.08;;;14.50;44.10;14.70;100479.00;;;;4896560;28;87739;-66
2023/03/17 10:31:17;;;;;;;3.72;0.90;;;14.60;43.60;15.00;100477.00;;;;4895124;28;87479;-66
2023/03/17 10:33:48;;;;;;;1.52;1.27;;;14.70;43.50;15.20;100474.00;;;;4894225;28;87886;-68
2023/03/17 10:36:17;;;;;;;1.65;0.98;;;15.00;43.20;15.30;100470.00;;;;4895982;28;102213;-67
2023/03/17 10:38:55;;;;;;;1.73;1.05;;;15.10;42.40;15.30;100470.00;;;;4893362;28;89851;-66
2023/03/17 10:41:21;;;;;;;0.80;0.80;;;15.20;42.20;15.30;100471.00;;;;4895536;28;87970;-68
2023/03/17 10:43:52;;;;;;;4.57;1.10;;;15.20;41.70;15.20;100469.00;;;;4895525;28;87697;-67
2023/03/17 10:46:24;;;;;;;1.95;1.15;;;15.20;41.60;15.10;100474.00;;;;4894861;28;87939;-67
2023/03/17 10:49:06;;;;;;;1.40;1.10;;;15.10;41.70;15.20;100467.00;;;;4894447;28;109511;-67
2023/03/17 10:51:35;;;;;;;1.30;1.00;;;15.10;42.10;15.50;100464.00;;;;4897480;28;87999;-66
2023/03/17 10:54:08;;;;;;;2.47;1.45;;;15.30;42.10;15.70;100466.00;;;;4894901;28;87965;-66
2023/03/17 10:56:41;;;;;;;2.30;0.82;;;15.50;41.60;15.90;100465.00;;;;4892365;28;86884;-67
2023/03/17 10:59:20;;;;;;;2.60;1.00;;;15.70;41.50;16.00;100461.00;;;;4894234;28;88902;-67
2023/03/17 11:01:53;;;;;;;0.90;0.75;;;15.80;40.80;16.00;100459.00;;;;4907309;28;95223;-69
2023/03/17 11:04:38;;;;;;;1.83;1.73;;;15.80;40.60;16.00;100456.00;;;;4891550;28;88891;-66